sensor_id;sensor_type;location;lat;lon;timestamp;temperature;humidity
64888;DHT22;51386;53.082;8.816;2022-08-14T00:01:58;27.40;51.70
64888;DHT22;51386;53.082;8.816;2022-08-14T00:04:29;27.40;51.70
64888;DHT22;51386;53.082;8.816;2022-08-14T00:07:07;27.40;51.80
64888;DHT22;51386;53.082;8.816;2022-08-14T00:09:36;27.40;52.00
64888;DHT22;51386;53.082;8.816;2022-08-14T00:12:24;27.40;52.80
64888;DHT22;51386;53.082;8.816;2022-08-14T00:15:06;27.30;52.20
64888;DHT22;51386;53.082;8.816;2022-08-14T00:17:36;27.30;52.30
64888;DHT22;51386;53.082;8.816;2022-08-14T00:20:22;27.30;52.50
64888;DHT22;51386;53.082;8.816;2022-08-14T00:23:01;27.20;53.20
64888;DHT22;51386;53.082;8.816;2022-08-14T00:25:43;27.20;52.50
64888;DHT22;51386;53.082;8.816;2022-08-14T00:28:31;27.20;52.70
64888;DHT22;51386;53.082;8.816;2022-08-14T00:31:02;27.20;52.80
64888;DHT22;51386;53.082;8.816;2022-08-14T00:33:31;27.10;52.60
64888;DHT22;51386;53.082;8.816;2022-08-14T00:36:21;27.10;53.40
64888;DHT22;51386;53.082;8.816;2022-08-14T00:39:13;27.10;52.80
64888;DHT22;51386;53.082;8.816;2022-08-14T00:41:45;27.10;52.70
64888;DHT22;51386;53.082;8.816;2022-08-14T00:44:13;27.10;52.60
64888;DHT22;51386;53.082;8.816;2022-08-14T00:46:58;27.10;52.70
64888;DHT22;51386;53.082;8.816;2022-08-14T00:49:26;27.10;52.90
64888;DHT22;51386;53.082;8.816;2022-08-14T00:51:57;27.10;53.00
64888;DHT22;51386;53.082;8.816;2022-08-14T00:54:26;27.10;53.10
64888;DHT22;51386;53.082;8.816;2022-08-14T00:56:53;27.10;52.90
64888;DHT22;51386;53.082;8.816;2022-08-14T00:59:23;27.10;53.00
64888;DHT22;51386;53.082;8.816;2022-08-14T01:01:53;27.10;53.10
64888;DHT22;51386;53.082;8.816;2022-08-14T01:04:25;27.00;53.10
64888;DHT22;51386;53.082;8.816;2022-08-14T01:07:15;27.00;53.20
64888;DHT22;51386;53.082;8.816;2022-08-14T01:09:48;27.00;53.20
64888;DHT22;51386;53.082;8.816;2022-08-14T01:12:18;27.00;53.20
64888;DHT22;51386;53.082;8.816;2022-08-14T01:14:56;27.00;53.50
64888;DHT22;51386;53.082;8.816;2022-08-14T01:17:26;27.00;53.50
64888;DHT22;51386;53.082;8.816;2022-08-14T01:20:19;27.00;53.50
64888;DHT22;51386;53.082;8.816;2022-08-14T01:23:11;26.90;53.60
64888;DHT22;51386;53.082;8.816;2022-08-14T01:25:49;26.90;53.60
64888;DHT22;51386;53.082;8.816;2022-08-14T01:28:18;26.90;53.80
64888;DHT22;51386;53.082;8.816;2022-08-14T01:31:09;26.90;53.70
64888;DHT22;51386;53.082;8.816;2022-08-14T01:33:42;26.80;53.80
64888;DHT22;51386;53.082;8.816;2022-08-14T01:36:32;26.80;53.80
64888;DHT22;51386;53.082;8.816;2022-08-14T01:39:09;26.80;54.00
64888;DHT22;51386;53.082;8.816;2022-08-14T01:41:41;26.80;53.80
64888;DHT22;51386;53.082;8.816;2022-08-14T01:44:11;26.80;54.10
64888;DHT22;51386;53.082;8.816;2022-08-14T01:47:02;26.80;54.10
64888;DHT22;51386;53.082;8.816;2022-08-14T01:49:48;26.70;54.10
64888;DHT22;51386;53.082;8.816;2022-08-14T01:52:30;26.70;54.10
64888;DHT22;51386;53.082;8.816;2022-08-14T01:55:20;26.70;54.50
64888;DHT22;51386;53.082;8.816;2022-08-14T01:57:54;26.70;54.70
64888;DHT22;51386;53.082;8.816;2022-08-14T02:00:41;26.60;54.70
64888;DHT22;51386;53.082;8.816;2022-08-14T02:03:14;26.60;54.70
64888;DHT22;51386;53.082;8.816;2022-08-14T02:05:42;26.60;54.90
64888;DHT22;51386;53.082;8.816;2022-08-14T02:08:09;26.50;55.00
64888;DHT22;51386;53.082;8.816;2022-08-14T02:10:43;26.40;55.10
64888;DHT22;51386;53.082;8.816;2022-08-14T02:13:12;26.40;55.40
64888;DHT22;51386;53.082;8.816;2022-08-14T02:15:42;26.40;55.40
64888;DHT22;51386;53.082;8.816;2022-08-14T02:18:10;26.30;55.70
64888;DHT22;51386;53.082;8.816;2022-08-14T02:20:41;26.30;55.90
64888;DHT22;51386;53.082;8.816;2022-08-14T02:23:08;26.20;55.90
64888;DHT22;51386;53.082;8.816;2022-08-14T02:25:37;26.20;56.00
64888;DHT22;51386;53.082;8.816;2022-08-14T02:28:06;26.10;56.30
64888;DHT22;51386;53.082;8.816;2022-08-14T02:30:54;26.10;56.50
64888;DHT22;51386;53.082;8.816;2022-08-14T02:33:22;26.00;56.60
64888;DHT22;51386;53.082;8.816;2022-08-14T02:35:49;26.00;56.90
64888;DHT22;51386;53.082;8.816;2022-08-14T02:38:39;26.00;56.90
64888;DHT22;51386;53.082;8.816;2022-08-14T02:41:11;25.90;57.00
64888;DHT22;51386;53.082;8.816;2022-08-14T02:43:41;25.90;57.10
64888;DHT22;51386;53.082;8.816;2022-08-14T02:46:14;25.90;57.20
64888;DHT22;51386;53.082;8.816;2022-08-14T02:48:52;25.90;57.30
64888;DHT22;51386;53.082;8.816;2022-08-14T02:51:32;25.90;57.30
64888;DHT22;51386;53.082;8.816;2022-08-14T02:54:03;25.80;57.40
64888;DHT22;51386;53.082;8.816;2022-08-14T02:56:34;25.80;57.30
64888;DHT22;51386;53.082;8.816;2022-08-14T02:59:26;25.80;57.30
64888;DHT22;51386;53.082;8.816;2022-08-14T03:02:00;25.80;57.20
64888;DHT22;51386;53.082;8.816;2022-08-14T03:04:28;25.80;57.30
64888;DHT22;51386;53.082;8.816;2022-08-14T03:06:57;25.80;57.30
64888;DHT22;51386;53.082;8.816;2022-08-14T03:09:35;25.80;57.50
64888;DHT22;51386;53.082;8.816;2022-08-14T03:12:23;25.80;57.50
64888;DHT22;51386;53.082;8.816;2022-08-14T03:15:00;25.70;58.10
64888;DHT22;51386;53.082;8.816;2022-08-14T03:17:42;25.80;57.60
64888;DHT22;51386;53.082;8.816;2022-08-14T03:20:25;25.70;57.40
64888;DHT22;51386;53.082;8.816;2022-08-14T03:22:53;25.70;57.50
64888;DHT22;51386;53.082;8.816;2022-08-14T03:25:23;25.70;57.60
64888;DHT22;51386;53.082;8.816;2022-08-14T03:27:50;25.70;57.50
64888;DHT22;51386;53.082;8.816;2022-08-14T03:30:27;25.70;57.60
64888;DHT22;51386;53.082;8.816;2022-08-14T03:33:08;25.70;57.50
64888;DHT22;51386;53.082;8.816;2022-08-14T03:35:38;25.70;57.60
64888;DHT22;51386;53.082;8.816;2022-08-14T03:38:28;25.70;57.60
64888;DHT22;51386;53.082;8.816;2022-08-14T03:41:18;25.70;57.70
64888;DHT22;51386;53.082;8.816;2022-08-14T03:43:51;25.60;57.60
64888;DHT22;51386;53.082;8.816;2022-08-14T03:46:30;25.60;57.80
64888;DHT22;51386;53.082;8.816;2022-08-14T03:49:20;25.60;57.90
64888;DHT22;51386;53.082;8.816;2022-08-14T03:51:54;25.60;57.90
64888;DHT22;51386;53.082;8.816;2022-08-14T03:54:24;25.60;58.00
64888;DHT22;51386;53.082;8.816;2022-08-14T03:56:52;25.60;57.90
64888;DHT22;51386;53.082;8.816;2022-08-14T03:59:20;25.60;57.90
64888;DHT22;51386;53.082;8.816;2022-08-14T04:01:49;25.50;58.10
64888;DHT22;51386;53.082;8.816;2022-08-14T04:04:27;25.50;58.10
64888;DHT22;51386;53.082;8.816;2022-08-14T04:06:56;25.50;58.10
64888;DHT22;51386;53.082;8.816;2022-08-14T04:09:27;25.50;58.20
64888;DHT22;51386;53.082;8.816;2022-08-14T04:11:56;25.40;58.20
64888;DHT22;51386;53.082;8.816;2022-08-14T04:14:25;25.40;58.10
64888;DHT22;51386;53.082;8.816;2022-08-14T04:16:56;25.40;58.20
64888;DHT22;51386;53.082;8.816;2022-08-14T04:19:24;25.40;58.40
64888;DHT22;51386;53.082;8.816;2022-08-14T04:21:59;25.40;58.40
64888;DHT22;51386;53.082;8.816;2022-08-14T04:24:30;25.40;58.40
64888;DHT22;51386;53.082;8.816;2022-08-14T04:27:05;25.40;58.50
64888;DHT22;51386;53.082;8.816;2022-08-14T04:29:36;25.40;58.50
64888;DHT22;51386;53.082;8.816;2022-08-14T04:32:07;25.40;58.50
64888;DHT22;51386;53.082;8.816;2022-08-14T04:34:55;25.40;58.30
64888;DHT22;51386;53.082;8.816;2022-08-14T04:37:23;25.40;58.40
64888;DHT22;51386;53.082;8.816;2022-08-14T04:40:11;25.40;58.50
64888;DHT22;51386;53.082;8.816;2022-08-14T04:43:01;25.40;58.40
64888;DHT22;51386;53.082;8.816;2022-08-14T04:45:47;25.40;58.40
64888;DHT22;51386;53.082;8.816;2022-08-14T04:48:18;25.40;58.30
64888;DHT22;51386;53.082;8.816;2022-08-14T04:51:09;25.40;58.50
64888;DHT22;51386;53.082;8.816;2022-08-14T04:53:40;25.40;58.40
64888;DHT22;51386;53.082;8.816;2022-08-14T04:56:10;25.40;58.50
64888;DHT22;51386;53.082;8.816;2022-08-14T04:59:03;25.40;58.60
64888;DHT22;51386;53.082;8.816;2022-08-14T05:01:38;25.40;58.50
64888;DHT22;51386;53.082;8.816;2022-08-14T05:04:15;25.40;58.50
64888;DHT22;51386;53.082;8.816;2022-08-14T05:06:47;25.40;58.60
64888;DHT22;51386;53.082;8.816;2022-08-14T05:09:20;25.40;58.70
64888;DHT22;51386;53.082;8.816;2022-08-14T05:11:48;25.40;58.70
64888;DHT22;51386;53.082;8.816;2022-08-14T05:14:18;25.40;59.30
64888;DHT22;51386;53.082;8.816;2022-08-14T05:17:08;25.40;58.60
64888;DHT22;51386;53.082;8.816;2022-08-14T05:19:38;25.40;58.50
64888;DHT22;51386;53.082;8.816;2022-08-14T05:22:26;25.50;58.40
64888;DHT22;51386;53.082;8.816;2022-08-14T05:24:53;25.60;58.40
64888;DHT22;51386;53.082;8.816;2022-08-14T05:27:20;25.60;58.10
64888;DHT22;51386;53.082;8.816;2022-08-14T05:29:53;25.60;58.10
64888;DHT22;51386;53.082;8.816;2022-08-14T05:32:24;25.70;58.10
64888;DHT22;51386;53.082;8.816;2022-08-14T05:34:55;25.70;58.00
64888;DHT22;51386;53.082;8.816;2022-08-14T05:37:25;25.70;57.90
64888;DHT22;51386;53.082;8.816;2022-08-14T05:39:54;25.80;57.90
64888;DHT22;51386;53.082;8.816;2022-08-14T05:42:22;25.80;57.80
64888;DHT22;51386;53.082;8.816;2022-08-14T05:45:01;25.80;57.90
64888;DHT22;51386;53.082;8.816;2022-08-14T05:47:40;25.90;57.80
64888;DHT22;51386;53.082;8.816;2022-08-14T05:50:12;25.90;57.60
64888;DHT22;51386;53.082;8.816;2022-08-14T05:52:46;25.90;57.50
64888;DHT22;51386;53.082;8.816;2022-08-14T05:55:15;25.90;57.40
64888;DHT22;51386;53.082;8.816;2022-08-14T05:57:51;26.00;57.40
64888;DHT22;51386;53.082;8.816;2022-08-14T06:00:22;26.00;57.40
64888;DHT22;51386;53.082;8.816;2022-08-14T06:02:56;26.00;57.20
64888;DHT22;51386;53.082;8.816;2022-08-14T06:05:28;26.10;57.10
64888;DHT22;51386;53.082;8.816;2022-08-14T06:07:56;26.10;57.80
64888;DHT22;51386;53.082;8.816;2022-08-14T06:10:25;26.20;57.00
64888;DHT22;51386;53.082;8.816;2022-08-14T06:12:55;26.20;56.90
64888;DHT22;51386;53.082;8.816;2022-08-14T06:15:24;26.20;56.80
64888;DHT22;51386;53.082;8.816;2022-08-14T06:17:56;26.30;56.60
64888;DHT22;51386;53.082;8.816;2022-08-14T06:20:29;26.30;56.50
64888;DHT22;51386;53.082;8.816;2022-08-14T06:23:00;26.30;56.60
64888;DHT22;51386;53.082;8.816;2022-08-14T06:25:29;26.30;56.40
64888;DHT22;51386;53.082;8.816;2022-08-14T06:27:57;26.40;56.20
64888;DHT22;51386;53.082;8.816;2022-08-14T06:30:32;26.40;56.20
64888;DHT22;51386;53.082;8.816;2022-08-14T06:33:13;26.50;56.20
64888;DHT22;51386;53.082;8.816;2022-08-14T06:35:43;26.50;56.10
64888;DHT22;51386;53.082;8.816;2022-08-14T06:38:14;26.60;56.10
64888;DHT22;51386;53.082;8.816;2022-08-14T06:40:44;26.70;55.90
64888;DHT22;51386;53.082;8.816;2022-08-14T06:43:13;26.70;55.40
64888;DHT22;51386;53.082;8.816;2022-08-14T06:45:45;26.80;55.20
64888;DHT22;51386;53.082;8.816;2022-08-14T06:48:21;26.80;55.10
64888;DHT22;51386;53.082;8.816;2022-08-14T06:50:52;26.90;55.20
64888;DHT22;51386;53.082;8.816;2022-08-14T06:53:21;26.90;55.10
64888;DHT22;51386;53.082;8.816;2022-08-14T06:55:54;27.00;55.10
64888;DHT22;51386;53.082;8.816;2022-08-14T06:58:28;27.10;55.00
64888;DHT22;51386;53.082;8.816;2022-08-14T07:00:59;27.10;55.00
64888;DHT22;51386;53.082;8.816;2022-08-14T07:03:54;27.20;54.70
64888;DHT22;51386;53.082;8.816;2022-08-14T07:06:51;27.20;54.60
64888;DHT22;51386;53.082;8.816;2022-08-14T07:09:25;27.20;54.80
64888;DHT22;51386;53.082;8.816;2022-08-14T07:12:14;27.30;54.80
64888;DHT22;51386;53.082;8.816;2022-08-14T07:15:02;27.20;54.60
64888;DHT22;51386;53.082;8.816;2022-08-14T07:17:30;27.30;54.60
64888;DHT22;51386;53.082;8.816;2022-08-14T07:20:03;27.30;54.70
64888;DHT22;51386;53.082;8.816;2022-08-14T07:22:34;27.30;54.70
64888;DHT22;51386;53.082;8.816;2022-08-14T07:25:22;27.40;54.60
64888;DHT22;51386;53.082;8.816;2022-08-14T07:27:58;27.50;54.60
64888;DHT22;51386;53.082;8.816;2022-08-14T07:30:27;27.50;54.70
64888;DHT22;51386;53.082;8.816;2022-08-14T07:33:01;27.60;54.60
64888;DHT22;51386;53.082;8.816;2022-08-14T07:35:29;27.70;54.70
64888;DHT22;51386;53.082;8.816;2022-08-14T07:38:16;27.80;55.20
64888;DHT22;51386;53.082;8.816;2022-08-14T07:40:46;27.90;54.10
64888;DHT22;51386;53.082;8.816;2022-08-14T07:43:19;28.00;54.00
64888;DHT22;51386;53.082;8.816;2022-08-14T07:45:49;28.10;53.80
64888;DHT22;51386;53.082;8.816;2022-08-14T07:48:20;28.30;53.80
64888;DHT22;51386;53.082;8.816;2022-08-14T07:50:51;28.60;53.20
64888;DHT22;51386;53.082;8.816;2022-08-14T07:53:30;29.00;52.90
64888;DHT22;51386;53.082;8.816;2022-08-14T07:56:06;29.60;51.00
64888;DHT22;51386;53.082;8.816;2022-08-14T07:58:56;30.10;50.10
64888;DHT22;51386;53.082;8.816;2022-08-14T08:01:24;30.70;48.40
64888;DHT22;51386;53.082;8.816;2022-08-14T08:03:57;31.30;47.70
64888;DHT22;51386;53.082;8.816;2022-08-14T08:06:29;31.80;45.20
64888;DHT22;51386;53.082;8.816;2022-08-14T08:08:59;32.10;44.30
64888;DHT22;51386;53.082;8.816;2022-08-14T08:11:31;32.50;43.50
64888;DHT22;51386;53.082;8.816;2022-08-14T08:14:05;32.80;42.60
64888;DHT22;51386;53.082;8.816;2022-08-14T08:16:36;33.20;42.20
64888;DHT22;51386;53.082;8.816;2022-08-14T08:19:05;33.60;40.80
64888;DHT22;51386;53.082;8.816;2022-08-14T08:21:40;33.80;40.30
64888;DHT22;51386;53.082;8.816;2022-08-14T08:24:12;34.10;39.60
64888;DHT22;51386;53.082;8.816;2022-08-14T08:26:45;34.30;39.40
64888;DHT22;51386;53.082;8.816;2022-08-14T08:29:19;34.60;38.40
64888;DHT22;51386;53.082;8.816;2022-08-14T08:31:56;35.00;37.40
64888;DHT22;51386;53.082;8.816;2022-08-14T08:34:41;35.40;37.10
64888;DHT22;51386;53.082;8.816;2022-08-14T08:37:12;35.80;36.10
64888;DHT22;51386;53.082;8.816;2022-08-14T08:39:45;36.20;35.60
64888;DHT22;51386;53.082;8.816;2022-08-14T08:42:30;36.70;34.40
64888;DHT22;51386;53.082;8.816;2022-08-14T08:45:08;37.00;33.30
64888;DHT22;51386;53.082;8.816;2022-08-14T08:47:38;37.30;32.90
64888;DHT22;51386;53.082;8.816;2022-08-14T08:50:19;37.50;32.20
64888;DHT22;51386;53.082;8.816;2022-08-14T08:52:58;37.80;31.60
64888;DHT22;51386;53.082;8.816;2022-08-14T08:55:32;38.20;32.10
64888;DHT22;51386;53.082;8.816;2022-08-14T08:58:03;38.50;30.20
64888;DHT22;51386;53.082;8.816;2022-08-14T09:00:46;38.90;30.10
64888;DHT22;51386;53.082;8.816;2022-08-14T09:03:17;39.20;29.90
64888;DHT22;51386;53.082;8.816;2022-08-14T09:05:52;39.40;28.90
64888;DHT22;51386;53.082;8.816;2022-08-14T09:08:23;39.50;28.40
64888;DHT22;51386;53.082;8.816;2022-08-14T09:11:01;39.50;28.40
64888;DHT22;51386;53.082;8.816;2022-08-14T09:13:48;39.60;28.60
64888;DHT22;51386;53.082;8.816;2022-08-14T09:16:19;39.60;28.30
64888;DHT22;51386;53.082;8.816;2022-08-14T09:18:50;39.60;28.10
64888;DHT22;51386;53.082;8.816;2022-08-14T09:21:20;39.70;28.50
64888;DHT22;51386;53.082;8.816;2022-08-14T09:23:51;39.60;28.00
64888;DHT22;51386;53.082;8.816;2022-08-14T09:26:43;39.60;28.00
64888;DHT22;51386;53.082;8.816;2022-08-14T09:29:16;39.60;28.10
64888;DHT22;51386;53.082;8.816;2022-08-14T09:31:52;39.50;28.00
64888;DHT22;51386;53.082;8.816;2022-08-14T09:34:36;39.60;28.20
64888;DHT22;51386;53.082;8.816;2022-08-14T09:37:38;39.70;27.70
64888;DHT22;51386;53.082;8.816;2022-08-14T09:40:23;39.90;27.90
64888;DHT22;51386;53.082;8.816;2022-08-14T09:43:18;40.00;27.50
64888;DHT22;51386;53.082;8.816;2022-08-14T09:45:56;40.30;27.90
64888;DHT22;51386;53.082;8.816;2022-08-14T09:48:28;40.50;27.10
64888;DHT22;51386;53.082;8.816;2022-08-14T09:50:58;40.80;27.10
64888;DHT22;51386;53.082;8.816;2022-08-14T09:53:35;41.00;26.40
64888;DHT22;51386;53.082;8.816;2022-08-14T09:56:26;41.00;26.40
64888;DHT22;51386;53.082;8.816;2022-08-14T09:59:10;41.20;26.50
64888;DHT22;51386;53.082;8.816;2022-08-14T10:01:43;41.30;26.10
64888;DHT22;51386;53.082;8.816;2022-08-14T10:04:21;41.30;26.00
64888;DHT22;51386;53.082;8.816;2022-08-14T10:07:03;41.30;25.60
64888;DHT22;51386;53.082;8.816;2022-08-14T10:09:31;41.10;25.50
64888;DHT22;51386;53.082;8.816;2022-08-14T10:12:02;41.10;25.60
64888;DHT22;51386;53.082;8.816;2022-08-14T10:14:46;41.10;25.90
64888;DHT22;51386;53.082;8.816;2022-08-14T10:17:22;41.10;26.00
64888;DHT22;51386;53.082;8.816;2022-08-14T10:19:53;41.20;25.60
64888;DHT22;51386;53.082;8.816;2022-08-14T10:22:24;41.30;25.80
64888;DHT22;51386;53.082;8.816;2022-08-14T10:25:16;41.50;25.90
64888;DHT22;51386;53.082;8.816;2022-08-14T10:27:44;41.70;25.70
64888;DHT22;51386;53.082;8.816;2022-08-14T10:30:32;41.80;25.50
64888;DHT22;51386;53.082;8.816;2022-08-14T10:33:04;42.10;25.40
64888;DHT22;51386;53.082;8.816;2022-08-14T10:35:40;42.30;25.10
64888;DHT22;51386;53.082;8.816;2022-08-14T10:38:24;42.60;25.50
64888;DHT22;51386;53.082;8.816;2022-08-14T10:41:09;42.80;24.50
64888;DHT22;51386;53.082;8.816;2022-08-14T10:43:40;43.00;24.30
64888;DHT22;51386;53.082;8.816;2022-08-14T10:46:14;42.90;24.20
64888;DHT22;51386;53.082;8.816;2022-08-14T10:49:03;42.60;23.80
64888;DHT22;51386;53.082;8.816;2022-08-14T10:51:32;42.00;24.20
64888;DHT22;51386;53.082;8.816;2022-08-14T10:54:08;41.50;24.70
64888;DHT22;51386;53.082;8.816;2022-08-14T10:56:56;40.90;25.40
64888;DHT22;51386;53.082;8.816;2022-08-14T10:59:25;40.30;25.90
64888;DHT22;51386;53.082;8.816;2022-08-14T11:02:03;39.70;26.10
64888;DHT22;51386;53.082;8.816;2022-08-14T11:04:59;39.10;26.80
64888;DHT22;51386;53.082;8.816;2022-08-14T11:07:35;38.60;27.70
64888;DHT22;51386;53.082;8.816;2022-08-14T11:10:07;38.10;27.90
64888;DHT22;51386;53.082;8.816;2022-08-14T11:12:44;37.70;28.80
64888;DHT22;51386;53.082;8.816;2022-08-14T11:15:16;37.30;28.90
64888;DHT22;51386;53.082;8.816;2022-08-14T11:17:48;37.10;29.00
64888;DHT22;51386;53.082;8.816;2022-08-14T11:20:19;36.90;29.20
64888;DHT22;51386;53.082;8.816;2022-08-14T11:22:51;36.80;29.50
64888;DHT22;51386;53.082;8.816;2022-08-14T11:25:30;36.60;29.20
64888;DHT22;51386;53.082;8.816;2022-08-14T11:28:21;36.50;29.60
64888;DHT22;51386;53.082;8.816;2022-08-14T11:31:11;36.40;30.00
64888;DHT22;51386;53.082;8.816;2022-08-14T11:33:47;36.30;30.40
64888;DHT22;51386;53.082;8.816;2022-08-14T11:36:21;36.30;30.60
64888;DHT22;51386;53.082;8.816;2022-08-14T11:38:49;36.30;30.70
64888;DHT22;51386;53.082;8.816;2022-08-14T11:41:19;36.30;31.10
64888;DHT22;51386;53.082;8.816;2022-08-14T11:43:50;36.30;31.30
64888;DHT22;51386;53.082;8.816;2022-08-14T11:46:24;36.20;31.40
64888;DHT22;51386;53.082;8.816;2022-08-14T11:49:04;36.20;31.60
64888;DHT22;51386;53.082;8.816;2022-08-14T11:51:32;36.10;31.30
64888;DHT22;51386;53.082;8.816;2022-08-14T11:54:21;36.10;31.60
64888;DHT22;51386;53.082;8.816;2022-08-14T11:57:01;36.20;31.50
64888;DHT22;51386;53.082;8.816;2022-08-14T11:59:30;36.10;31.40
64888;DHT22;51386;53.082;8.816;2022-08-14T12:02:12;36.00;31.00
64888;DHT22;51386;53.082;8.816;2022-08-14T12:05:03;35.80;30.80
64888;DHT22;51386;53.082;8.816;2022-08-14T12:07:35;35.80;31.40
64888;DHT22;51386;53.082;8.816;2022-08-14T12:10:17;35.80;31.60
64888;DHT22;51386;53.082;8.816;2022-08-14T12:13:12;35.80;31.70
64888;DHT22;51386;53.082;8.816;2022-08-14T12:15:44;36.00;31.60
64888;DHT22;51386;53.082;8.816;2022-08-14T12:18:28;36.00;31.10
64888;DHT22;51386;53.082;8.816;2022-08-14T12:21:09;36.10;31.30
64888;DHT22;51386;53.082;8.816;2022-08-14T12:23:47;36.10;30.90
64888;DHT22;51386;53.082;8.816;2022-08-14T12:26:27;36.00;30.70
64888;DHT22;51386;53.082;8.816;2022-08-14T12:29:08;36.00;31.10
64888;DHT22;51386;53.082;8.816;2022-08-14T12:31:39;35.90;31.00
64888;DHT22;51386;53.082;8.816;2022-08-14T12:34:13;35.90;31.10
64888;DHT22;51386;53.082;8.816;2022-08-14T12:37:00;35.80;31.20
64888;DHT22;51386;53.082;8.816;2022-08-14T12:39:32;35.80;30.90
64888;DHT22;51386;53.082;8.816;2022-08-14T12:42:06;35.70;30.30
64888;DHT22;51386;53.082;8.816;2022-08-14T12:44:39;35.50;30.50
64888;DHT22;51386;53.082;8.816;2022-08-14T12:47:11;35.40;30.30
64888;DHT22;51386;53.082;8.816;2022-08-14T12:49:48;35.30;30.30
64888;DHT22;51386;53.082;8.816;2022-08-14T12:52:28;35.20;30.30
64888;DHT22;51386;53.082;8.816;2022-08-14T12:55:19;35.10;30.20
64888;DHT22;51386;53.082;8.816;2022-08-14T12:57:50;35.10;30.70
64888;DHT22;51386;53.082;8.816;2022-08-14T13:00:21;35.20;30.70
64888;DHT22;51386;53.082;8.816;2022-08-14T13:02:52;35.20;30.50
64888;DHT22;51386;53.082;8.816;2022-08-14T13:05:24;35.30;30.30
64888;DHT22;51386;53.082;8.816;2022-08-14T13:07:56;35.30;30.10
64888;DHT22;51386;53.082;8.816;2022-08-14T13:10:26;35.40;30.30
64888;DHT22;51386;53.082;8.816;2022-08-14T13:13:17;35.30;29.90
64888;DHT22;51386;53.082;8.816;2022-08-14T13:15:47;35.20;30.00
64888;DHT22;51386;53.082;8.816;2022-08-14T13:18:25;35.20;30.40
64888;DHT22;51386;53.082;8.816;2022-08-14T13:20:55;35.20;30.60
64888;DHT22;51386;53.082;8.816;2022-08-14T13:23:31;35.20;30.70
64888;DHT22;51386;53.082;8.816;2022-08-14T13:26:02;35.30;30.70
64888;DHT22;51386;53.082;8.816;2022-08-14T13:28:30;35.30;30.50
64888;DHT22;51386;53.082;8.816;2022-08-14T13:31:07;35.50;30.30
64888;DHT22;51386;53.082;8.816;2022-08-14T13:33:39;35.60;30.00
64888;DHT22;51386;53.082;8.816;2022-08-14T13:36:09;35.60;30.00
64888;DHT22;51386;53.082;8.816;2022-08-14T13:38:51;35.60;30.40
64888;DHT22;51386;53.082;8.816;2022-08-14T13:41:19;35.60;29.70
64888;DHT22;51386;53.082;8.816;2022-08-14T13:43:58;35.60;29.80
64888;DHT22;51386;53.082;8.816;2022-08-14T13:46:26;35.70;29.90
64888;DHT22;51386;53.082;8.816;2022-08-14T13:48:55;35.70;30.00
64888;DHT22;51386;53.082;8.816;2022-08-14T13:51:30;35.70;30.10
64888;DHT22;51386;53.082;8.816;2022-08-14T13:54:06;35.80;30.10
64888;DHT22;51386;53.082;8.816;2022-08-14T13:56:38;35.80;30.20
64888;DHT22;51386;53.082;8.816;2022-08-14T13:59:08;35.70;30.00
64888;DHT22;51386;53.082;8.816;2022-08-14T14:01:36;35.60;30.10
64888;DHT22;51386;53.082;8.816;2022-08-14T14:04:13;35.60;30.20
64888;DHT22;51386;53.082;8.816;2022-08-14T14:06:47;35.60;31.10
64888;DHT22;51386;53.082;8.816;2022-08-14T14:09:23;35.60;30.40
64888;DHT22;51386;53.082;8.816;2022-08-14T14:11:59;35.60;30.20
64888;DHT22;51386;53.082;8.816;2022-08-14T14:14:30;35.70;30.50
64888;DHT22;51386;53.082;8.816;2022-08-14T14:17:17;35.70;30.50
64888;DHT22;51386;53.082;8.816;2022-08-14T14:19:51;35.70;30.60
64888;DHT22;51386;53.082;8.816;2022-08-14T14:22:19;35.60;30.60
64888;DHT22;51386;53.082;8.816;2022-08-14T14:25:08;35.60;30.40
64888;DHT22;51386;53.082;8.816;2022-08-14T14:27:39;35.50;30.50
64888;DHT22;51386;53.082;8.816;2022-08-14T14:30:10;35.30;30.70
64888;DHT22;51386;53.082;8.816;2022-08-14T14:32:59;35.20;31.00
64888;DHT22;51386;53.082;8.816;2022-08-14T14:35:51;35.10;31.00
64888;DHT22;51386;53.082;8.816;2022-08-14T14:38:19;35.00;31.10
64888;DHT22;51386;53.082;8.816;2022-08-14T14:40:55;35.00;31.00
64888;DHT22;51386;53.082;8.816;2022-08-14T14:43:27;35.00;31.20
64888;DHT22;51386;53.082;8.816;2022-08-14T14:45:55;34.90;30.70
64888;DHT22;51386;53.082;8.816;2022-08-14T14:48:24;34.90;31.20
64888;DHT22;51386;53.082;8.816;2022-08-14T14:50:56;34.80;31.00
64888;DHT22;51386;53.082;8.816;2022-08-14T14:53:27;34.80;30.70
64888;DHT22;51386;53.082;8.816;2022-08-14T14:56:07;34.70;30.00
64888;DHT22;51386;53.082;8.816;2022-08-14T14:58:56;34.80;30.40
64888;DHT22;51386;53.082;8.816;2022-08-14T15:01:24;34.80;29.90
64888;DHT22;51386;53.082;8.816;2022-08-14T15:03:53;34.80;29.80
64888;DHT22;51386;53.082;8.816;2022-08-14T15:06:23;34.80;30.00
64888;DHT22;51386;53.082;8.816;2022-08-14T15:08:59;34.90;30.10
64888;DHT22;51386;53.082;8.816;2022-08-14T15:11:31;34.90;30.00
64888;DHT22;51386;53.082;8.816;2022-08-14T15:13:59;34.90;29.80
64888;DHT22;51386;53.082;8.816;2022-08-14T15:16:27;34.80;29.80
64888;DHT22;51386;53.082;8.816;2022-08-14T15:18:54;34.90;30.00
64888;DHT22;51386;53.082;8.816;2022-08-14T15:21:23;34.90;30.00
64888;DHT22;51386;53.082;8.816;2022-08-14T15:23:50;34.90;30.00
64888;DHT22;51386;53.082;8.816;2022-08-14T15:26:19;34.90;30.00
64888;DHT22;51386;53.082;8.816;2022-08-14T15:29:00;35.00;30.00
64888;DHT22;51386;53.082;8.816;2022-08-14T15:31:32;35.00;30.00
64888;DHT22;51386;53.082;8.816;2022-08-14T15:34:03;35.00;29.80
64888;DHT22;51386;53.082;8.816;2022-08-14T15:36:58;35.00;29.50
64888;DHT22;51386;53.082;8.816;2022-08-14T15:39:26;35.10;29.60
64888;DHT22;51386;53.082;8.816;2022-08-14T15:42:01;35.10;29.50
64888;DHT22;51386;53.082;8.816;2022-08-14T15:44:45;35.10;29.50
64888;DHT22;51386;53.082;8.816;2022-08-14T15:47:25;35.10;29.30
64888;DHT22;51386;53.082;8.816;2022-08-14T15:49:55;35.00;29.50
64888;DHT22;51386;53.082;8.816;2022-08-14T15:52:27;35.10;29.80
64888;DHT22;51386;53.082;8.816;2022-08-14T15:55:02;35.10;29.70
64888;DHT22;51386;53.082;8.816;2022-08-14T15:57:32;35.00;29.40
64888;DHT22;51386;53.082;8.816;2022-08-14T16:00:02;35.00;29.60
64888;DHT22;51386;53.082;8.816;2022-08-14T16:03:10;35.00;30.00
64888;DHT22;51386;53.082;8.816;2022-08-14T16:05:41;35.00;30.20
64888;DHT22;51386;53.082;8.816;2022-08-14T16:08:10;34.90;30.00
64888;DHT22;51386;53.082;8.816;2022-08-14T16:10:57;34.90;30.10
64888;DHT22;51386;53.082;8.816;2022-08-14T16:13:26;34.80;30.40
64888;DHT22;51386;53.082;8.816;2022-08-14T16:16:13;34.70;30.60
64888;DHT22;51386;53.082;8.816;2022-08-14T16:19:05;34.70;30.90
64888;DHT22;51386;53.082;8.816;2022-08-14T16:21:38;34.80;31.00
64888;DHT22;51386;53.082;8.816;2022-08-14T16:24:29;34.90;31.00